createdAt,value
2019-03-18T00:00:54.017Z,1008.15
2019-03-18T00:01:54.051Z,1008.13
2019-03-18T00:02:53.953Z,1008.24
2019-03-18T00:03:53.964Z,1008.14
2019-03-18T00:04:53.887Z,1008.17
2019-03-18T00:05:53.862Z,1008.13
2019-03-18T00:06:53.824Z,1008.18
2019-03-18T00:07:53.885Z,1008.12
2019-03-18T00:08:53.766Z,1008.12
2019-03-18T00:09:53.793Z,1008.14
2019-03-18T00:10:53.813Z,1008.12
2019-03-18T00:11:53.681Z,1008.13
2019-03-18T00:12:53.703Z,1008.13
2019-03-18T00:13:53.609Z,1008.12
2019-03-18T00:15:01.152Z,1008.15
2019-03-18T00:15:53.543Z,1008.20
2019-03-18T00:16:53.526Z,1008.16
2019-03-18T00:17:53.554Z,1008.26
2019-03-18T00:18:53.455Z,1008.18
2019-03-18T00:19:53.457Z,1008.21
2019-03-18T00:20:53.384Z,1008.18
2019-03-18T00:21:53.352Z,1008.21
2019-03-18T00:22:53.324Z,1008.33
2019-03-18T00:23:53.362Z,1008.23
2019-03-18T00:24:53.269Z,1008.26
2019-03-18T00:25:53.283Z,1008.32
2019-03-18T00:26:53.203Z,1008.30
2019-03-18T00:27:53.167Z,1008.28
2019-03-18T00:28:53.138Z,1008.31
2019-03-18T00:29:53.197Z,1008.27
2019-03-18T00:30:53.074Z,1008.28
2019-03-18T00:31:53.109Z,1008.28
2019-03-18T00:32:53.002Z,1008.29
2019-03-18T00:33:52.972Z,1008.35
2019-03-18T00:34:53.025Z,1008.35
2019-03-18T00:35:52.913Z,1008.34
2019-03-18T00:36:52.934Z,1008.30
2019-03-18T00:37:52.854Z,1008.34
2019-03-18T00:38:52.823Z,1008.32
2019-03-18T00:39:52.783Z,1008.28
2019-03-18T00:40:52.855Z,1008.36
2019-03-18T00:41:52.734Z,1008.32
2019-03-18T00:42:52.762Z,1008.38
2019-03-18T00:43:52.664Z,1008.37
2019-03-18T00:44:52.640Z,1008.31
2019-03-18T00:45:52.687Z,1008.37
2019-03-18T00:46:52.572Z,1008.34
2019-03-18T00:47:52.595Z,1008.32
2019-03-18T00:48:52.511Z,1008.32
2019-03-18T00:49:52.474Z,1008.39
2019-03-18T00:50:52.443Z,1008.34
2019-03-18T00:51:52.512Z,1008.41
2019-03-18T00:52:52.398Z,1008.43
2019-03-18T00:53:52.437Z,1008.46
2019-03-18T00:54:52.314Z,1008.48
2019-03-18T00:55:52.283Z,1008.46
2019-03-18T00:56:52.343Z,1008.42
2019-03-18T00:57:52.230Z,1008.43
2019-03-18T00:58:52.252Z,1008.48
2019-03-18T00:59:52.161Z,1008.48
2019-03-18T01:00:52.132Z,1008.48
2019-03-18T01:01:52.102Z,1008.57
2019-03-18T01:02:52.070Z,1008.57
2019-03-18T01:03:52.067Z,1008.54
2019-03-18T01:04:52.080Z,1008.56
2019-03-18T01:05:51.974Z,1008.55
2019-03-18T01:06:51.932Z,1008.57
2019-03-18T01:07:52.027Z,1008.55
2019-03-18T01:08:51.871Z,1008.53
2019-03-18T01:09:51.913Z,1008.56
2019-03-18T01:10:51.814Z,1008.50
2019-03-18T01:11:51.780Z,1008.55
2019-03-18T01:12:51.753Z,1008.58
2019-03-18T01:13:51.732Z,1008.56
2019-03-18T01:14:51.702Z,1008.62
2019-03-18T01:15:51.746Z,1008.67
2019-03-18T01:16:51.647Z,1008.66
2019-03-18T01:17:51.609Z,1008.64
2019-03-18T01:18:51.577Z,1008.67
2019-03-18T01:19:51.569Z,1008.65
2019-03-18T01:20:51.493Z,1008.66
2019-03-18T01:21:51.582Z,1008.71
2019-03-18T01:22:51.435Z,1008.68
2019-03-18T01:23:51.497Z,1008.69
2019-03-18T01:24:51.395Z,1008.66
2019-03-18T01:25:51.405Z,1008.68
2019-03-18T01:26:51.304Z,1008.66
2019-03-18T01:27:51.319Z,1008.67
2019-03-18T01:28:51.324Z,1008.67
2019-03-18T01:29:51.213Z,1008.74
2019-03-18T01:30:51.220Z,1008.63
2019-03-18T01:31:51.154Z,1008.65
2019-03-18T01:32:51.132Z,1008.65
2019-03-18T01:33:51.083Z,1008.62
2019-03-18T01:34:51.055Z,1008.64
2019-03-18T01:35:51.061Z,1008.65
2019-03-18T01:36:50.996Z,1008.63
2019-03-18T01:37:51.060Z,1008.62
2019-03-18T01:38:50.933Z,1008.62
2019-03-18T01:39:50.896Z,1008.68
2019-03-18T01:40:50.872Z,1008.63
2019-03-18T01:41:50.894Z,1008.62
2019-03-18T01:42:50.862Z,1008.65
2019-03-18T01:43:50.791Z,1008.63
2019-03-18T01:44:50.732Z,1008.70
2019-03-18T01:45:50.724Z,1008.70
2019-03-18T01:46:50.710Z,1008.71
2019-03-18T01:47:50.646Z,1008.70
2019-03-18T01:48:50.720Z,1008.74
2019-03-18T01:49:50.593Z,1008.73
2019-03-18T01:50:50.555Z,1008.67
2019-03-18T01:51:50.532Z,1008.73
2019-03-18T01:52:50.542Z,1008.71
2019-03-18T01:53:50.453Z,1008.71
2019-03-18T01:54:50.456Z,1008.67
2019-03-18T01:55:50.392Z,1008.70
2019-03-18T01:56:50.361Z,1008.73
2019-03-18T01:57:50.325Z,1008.80
2019-03-18T01:58:50.381Z,1008.72
2019-03-18T01:59:50.263Z,1008.70
2019-03-18T02:00:50.295Z,1008.70
2019-03-18T02:01:50.200Z,1008.73
2019-03-18T02:02:51.933Z,1008.70
2019-03-18T02:03:50.134Z,1008.70
2019-03-18T02:04:50.222Z,1008.68
2019-03-18T02:05:50.076Z,1008.71
2019-03-18T02:06:50.141Z,1008.71
2019-03-18T02:07:50.133Z,1008.68
2019-03-18T02:08:49.980Z,1008.73
2019-03-18T02:09:50.042Z,1008.74
2019-03-18T02:10:49.915Z,1008.73
2019-03-18T02:11:49.950Z,1008.75
2019-03-18T02:12:49.875Z,1008.75
2019-03-18T02:13:49.821Z,1008.78
2019-03-18T02:14:49.862Z,1008.76
2019-03-18T02:15:53.466Z,1008.73
2019-03-18T02:16:49.771Z,1008.77
2019-03-18T02:17:49.704Z,1008.77
2019-03-18T02:18:49.667Z,1008.74
2019-03-18T02:19:49.630Z,1008.67
2019-03-18T02:20:49.699Z,1008.75
2019-03-18T02:21:49.572Z,1008.71
2019-03-18T02:24:21.251Z,1008.71
2019-03-18T02:25:21.196Z,1008.72
2019-03-18T02:27:25.213Z,1008.64
2019-03-18T02:28:25.104Z,1008.69
2019-03-18T02:30:29.132Z,1008.69
2019-03-18T02:31:29.014Z,1008.66
2019-03-18T02:33:33.036Z,1008.58
2019-03-18T02:34:32.921Z,1008.60
2019-03-18T02:36:25.870Z,1008.65
2019-03-18T02:37:25.797Z,1008.65
2019-03-18T02:39:29.792Z,1008.74
2019-03-18T02:40:29.681Z,1008.72
2019-03-18T02:42:33.703Z,1008.81
2019-03-18T02:43:33.599Z,1008.79
2019-03-18T02:45:37.614Z,1008.87
2019-03-18T02:46:37.512Z,1008.88
2019-03-18T02:48:41.529Z,1008.89
2019-03-18T02:49:41.414Z,1008.87
2019-03-18T02:51:46.353Z,1008.86
2019-03-18T02:52:46.252Z,1008.84
2019-03-18T02:54:51.192Z,1008.93
2019-03-18T02:55:51.081Z,1008.90
2019-03-18T02:57:55.962Z,1008.90
2019-03-18T02:58:55.911Z,1008.91
2019-03-18T03:00:59.932Z,1008.90
2019-03-18T03:01:59.822Z,1008.94
2019-03-18T03:04:03.842Z,1009.04
2019-03-18T03:05:03.730Z,1009.06
2019-03-18T03:07:08.669Z,1009.11
2019-03-18T03:08:08.573Z,1009.19
2019-03-18T03:10:13.503Z,1009.21
2019-03-18T03:11:13.394Z,1009.25
2019-03-18T03:13:18.333Z,1009.33
2019-03-18T03:14:18.223Z,1009.36
2019-03-18T03:16:25.613Z,1009.41
2019-03-18T03:17:11.085Z,1009.41
2019-03-18T03:19:15.091Z,1009.47
2019-03-18T03:20:15.054Z,1009.49
2019-03-18T03:22:19.003Z,1009.47
2019-03-18T03:23:19.013Z,1009.46
2019-03-18T03:25:25.205Z,1009.44
2019-03-18T03:26:23.722Z,1009.49
2019-03-18T03:28:27.755Z,1009.48
2019-03-18T03:29:27.634Z,1009.54
2019-03-18T03:31:31.592Z,1009.61
2019-03-18T03:32:31.651Z,1009.63
2019-03-18T03:34:35.561Z,1009.63
2019-03-18T03:35:35.459Z,1009.64
2019-03-18T03:37:39.471Z,1009.66
2019-03-18T03:38:39.363Z,1009.63
2019-03-18T03:40:43.381Z,1009.71
2019-03-18T03:41:43.316Z,1009.68
2019-03-18T03:43:47.293Z,1009.77
2019-03-18T03:44:47.183Z,1009.70
2019-03-18T03:46:43.568Z,1009.63
2019-03-18T03:47:40.065Z,1009.68
2019-03-18T03:49:44.051Z,1009.66
2019-03-18T03:50:43.953Z,1009.69
2019-03-18T03:52:47.974Z,1009.64
2019-03-18T03:53:47.937Z,1009.70
2019-03-18T03:55:51.873Z,1009.67
2019-03-18T03:56:51.784Z,1009.64
2019-03-18T03:58:55.819Z,1009.61
2019-03-18T03:59:55.699Z,1009.63
2019-03-18T04:01:59.704Z,1009.70
2019-03-18T04:02:59.596Z,1009.72
2019-03-18T04:05:03.554Z,1009.82
2019-03-18T04:06:03.513Z,1009.81
2019-03-18T04:08:07.514Z,1009.82
2019-03-18T04:09:07.424Z,1009.80
2019-03-18T04:11:11.463Z,1009.82
2019-03-18T04:12:11.343Z,1009.80
2019-03-18T04:14:15.341Z,1009.78
2019-03-18T04:15:15.232Z,1009.81
2019-03-18T04:17:19.247Z,1009.88
2019-03-18T04:18:19.157Z,1009.86
2019-03-18T04:20:23.159Z,1009.86
2019-03-18T04:21:23.067Z,1009.94
2019-03-18T04:23:27.072Z,1009.92
2019-03-18T04:24:26.965Z,1009.98
2019-03-18T04:26:19.913Z,1010.02
2019-03-18T04:27:19.812Z,1009.94
2019-03-18T04:29:23.832Z,1009.94
2019-03-18T04:30:23.724Z,1009.99
2019-03-18T04:32:27.743Z,1010.09
2019-03-18T04:33:27.636Z,1010.05
2019-03-18T04:35:31.671Z,1010.12
2019-03-18T04:36:31.543Z,1010.14
2019-03-18T04:38:35.493Z,1010.13
2019-03-18T04:39:35.452Z,1010.12
2019-03-18T04:41:39.463Z,1010.14
2019-03-18T04:42:39.364Z,1010.18
2019-03-18T04:44:43.375Z,1010.25
2019-03-18T04:45:43.274Z,1010.17
2019-03-18T04:47:47.282Z,1010.16
2019-03-18T04:48:47.183Z,1010.15
2019-03-18T04:50:51.192Z,1010.21
2019-03-18T04:51:51.084Z,1010.24
2019-03-18T04:53:55.101Z,1010.25
2019-03-18T04:54:55.002Z,1010.28
2019-03-18T04:56:59.024Z,1010.31
2019-03-18T04:57:58.914Z,1010.36
2019-03-18T05:00:02.924Z,1010.41
2019-03-18T05:01:02.824Z,1010.38
2019-03-18T05:03:07.764Z,1010.44
2019-03-18T05:04:07.652Z,1010.43
2019-03-18T05:06:01.366Z,1010.46
2019-03-18T05:07:01.324Z,1010.52
2019-03-18T05:09:05.352Z,1010.50
2019-03-18T05:10:05.275Z,1010.52
2019-03-18T05:12:10.161Z,1010.51
2019-03-18T05:13:10.062Z,1010.53
2019-03-18T05:15:14.100Z,1010.60
2019-03-18T05:16:13.972Z,1010.57
2019-03-18T05:18:18.924Z,1010.65
2019-03-18T05:19:18.802Z,1010.59
2019-03-18T05:21:23.748Z,1010.68
2019-03-18T05:22:23.638Z,1010.66
2019-03-18T05:24:28.586Z,1010.86
2019-03-18T05:25:28.473Z,1010.91
2019-03-18T05:27:32.495Z,1011.02
2019-03-18T05:28:32.454Z,1011.08
2019-03-18T05:30:36.390Z,1011.03
2019-03-18T05:31:36.294Z,1010.98
2019-03-18T05:33:40.305Z,1011.01
2019-03-18T05:34:40.209Z,1011.00
2019-03-18T05:36:33.156Z,1010.99
2019-03-18T05:37:33.052Z,1010.97
2019-03-18T05:39:37.923Z,1011.02
2019-03-18T05:40:37.885Z,1011.02
2019-03-18T05:42:41.894Z,1011.02
2019-03-18T05:43:41.837Z,1011.09
2019-03-18T05:45:45.742Z,1011.09
2019-03-18T05:46:45.712Z,1011.15
2019-03-18T05:48:49.712Z,1011.18
2019-03-18T05:49:49.626Z,1011.21
2019-03-18T05:51:53.624Z,1011.15
2019-03-18T05:52:53.523Z,1011.16
2019-03-18T05:54:57.562Z,1011.30
2019-03-18T05:55:57.433Z,1011.22
2019-03-18T05:56:57.406Z,1011.28
2019-03-18T05:57:57.415Z,1011.27
2019-03-18T05:58:57.343Z,1011.31
2019-03-18T05:59:57.325Z,1011.30
2019-03-18T06:00:57.281Z,1011.35
2019-03-18T06:01:57.242Z,1011.39
2019-03-18T06:02:57.213Z,1011.38
2019-03-18T06:03:57.243Z,1011.39
2019-03-18T06:04:57.159Z,1011.37
2019-03-18T06:05:57.153Z,1011.44
2019-03-18T06:06:57.095Z,1011.40
2019-03-18T06:07:57.063Z,1011.44
2019-03-18T06:08:57.021Z,1011.43
2019-03-18T06:09:57.085Z,1011.38
2019-03-18T06:10:56.963Z,1011.44
2019-03-18T06:11:56.997Z,1011.46
2019-03-18T06:12:56.913Z,1011.47
2019-03-18T06:13:56.914Z,1011.56
2019-03-18T06:14:56.846Z,1011.56
2019-03-18T06:15:56.922Z,1011.52
2019-03-18T06:16:56.777Z,1011.53
2019-03-18T06:17:56.822Z,1011.56
2019-03-18T06:18:56.734Z,1011.62
2019-03-18T06:19:56.682Z,1011.60
2019-03-18T06:20:56.742Z,1011.64
2019-03-18T06:21:56.630Z,1011.63
2019-03-18T06:22:56.651Z,1011.64
2019-03-18T06:23:56.552Z,1011.65
2019-03-18T06:24:56.563Z,1011.70
2019-03-18T06:25:56.517Z,1011.71
2019-03-18T06:26:56.578Z,1011.71
2019-03-18T06:27:56.442Z,1011.78
2019-03-18T06:28:56.487Z,1011.80
2019-03-18T06:29:56.362Z,1011.81
2019-03-18T06:30:56.408Z,1011.86
2019-03-18T06:31:56.314Z,1011.85
2019-03-18T06:32:56.307Z,1011.88
2019-03-18T06:33:56.241Z,1011.91
2019-03-18T06:34:56.325Z,1011.87
2019-03-18T06:35:56.172Z,1011.96
2019-03-18T06:36:56.223Z,1012.03
2019-03-18T06:37:56.111Z,1011.99
2019-03-18T06:38:56.134Z,1011.97
2019-03-18T06:39:56.052Z,1011.97
2019-03-18T06:40:56.022Z,1011.98
2019-03-18T06:41:56.005Z,1012.01
2019-03-18T06:42:56.064Z,1012.01
2019-03-18T06:43:55.934Z,1012.05
2019-03-18T06:44:55.973Z,1012.10
2019-03-18T06:45:55.872Z,1012.10
2019-03-18T06:46:55.832Z,1012.19
2019-03-18T06:48:04.697Z,1012.09
2019-03-18T06:48:55.775Z,1012.14
2019-03-18T06:49:55.803Z,1012.11
2019-03-18T06:50:55.713Z,1012.16
2019-03-18T06:51:55.672Z,1012.15
2019-03-18T06:52:55.654Z,1012.18
2019-03-18T06:53:55.714Z,1012.12
2019-03-18T06:54:55.583Z,1012.11
2019-03-18T06:55:55.636Z,1012.14
2019-03-18T06:56:55.532Z,1012.17
2019-03-18T06:57:55.494Z,1012.15
2019-03-18T06:58:55.461Z,1012.16
2019-03-18T06:59:55.462Z,1012.14
2019-03-18T07:00:55.402Z,1012.15
2019-03-18T07:01:55.463Z,1012.18
2019-03-18T07:02:55.333Z,1012.17
2019-03-18T07:03:55.372Z,1012.22
2019-03-18T07:04:55.286Z,1012.22
2019-03-18T07:05:55.295Z,1012.26
2019-03-18T07:06:55.212Z,1012.23
2019-03-18T07:07:55.290Z,1012.25
2019-03-18T07:08:55.195Z,1012.26
2019-03-18T07:09:55.134Z,1012.27
2019-03-18T07:10:55.101Z,1012.31
2019-03-18T07:11:55.061Z,1012.27
2019-03-18T07:12:55.128Z,1012.31
2019-03-18T07:13:54.998Z,1012.32
2019-03-18T07:14:55.031Z,1012.33
2019-03-18T07:15:54.934Z,1012.38
2019-03-18T07:16:54.946Z,1012.37
2019-03-18T07:17:54.873Z,1012.31
2019-03-18T07:18:54.963Z,1012.27
2019-03-18T07:19:54.834Z,1012.40
2019-03-18T07:20:54.866Z,1012.40
2019-03-18T07:21:54.753Z,1012.45
2019-03-18T07:22:54.773Z,1012.44
2019-03-18T07:23:54.681Z,1012.42
2019-03-18T07:24:54.681Z,1012.45
2019-03-18T07:25:54.622Z,1012.45
2019-03-18T07:26:54.695Z,1012.49
2019-03-18T07:27:54.564Z,1012.47
2019-03-18T07:28:54.633Z,1012.58
2019-03-18T07:29:54.514Z,1012.55
2019-03-18T07:30:54.473Z,1012.56
2019-03-18T07:31:54.447Z,1012.58
2019-03-18T07:32:54.423Z,1012.60
2019-03-18T07:33:54.371Z,1012.57
2019-03-18T07:34:54.444Z,1012.59
2019-03-18T07:35:54.313Z,1012.59
2019-03-18T07:36:54.304Z,1012.58
2019-03-18T07:37:54.363Z,1012.62
2019-03-18T07:38:54.226Z,1012.69
2019-03-18T07:39:54.263Z,1012.65
2019-03-18T07:40:54.163Z,1012.68
2019-03-18T07:41:54.133Z,1012.72
2019-03-18T07:42:54.096Z,1012.72
2019-03-18T07:43:54.085Z,1012.78
2019-03-18T07:44:54.045Z,1012.81
2019-03-18T07:45:54.103Z,1012.79
2019-03-18T07:46:53.972Z,1012.85
2019-03-18T07:47:53.954Z,1012.87
2019-03-18T07:48:54.014Z,1012.95
2019-03-18T07:49:53.881Z,1012.96
2019-03-18T07:50:53.924Z,1013.02
2019-03-18T07:51:53.823Z,1013.05
2019-03-18T07:52:53.792Z,1013.12
2019-03-18T07:53:53.773Z,1013.12
2019-03-18T07:54:53.741Z,1013.07
2019-03-18T07:55:53.703Z,1013.18
2019-03-18T07:56:53.763Z,1013.14
2019-03-18T07:57:53.642Z,1013.14
2019-03-18T07:58:54.693Z,1013.14
2019-03-18T07:59:53.584Z,1013.15
2019-03-18T08:00:53.605Z,1013.18
2019-03-18T08:01:53.524Z,1013.18
2019-03-18T08:02:53.595Z,1013.22
2019-03-18T08:03:53.493Z,1013.21
2019-03-18T08:04:53.424Z,1013.25
2019-03-18T08:05:53.504Z,1013.19
2019-03-18T08:06:53.376Z,1013.26
2019-03-18T08:07:53.413Z,1013.26
2019-03-18T08:08:53.592Z,1013.27
2019-03-18T08:09:53.325Z,1013.23
2019-03-18T08:10:53.244Z,1013.27
2019-03-18T08:11:53.345Z,1013.23
2019-03-18T08:12:53.194Z,1013.18
2019-03-18T08:13:53.254Z,1013.24
2019-03-18T08:14:53.152Z,1013.23
2019-03-18T08:15:53.102Z,1013.25
2019-03-18T08:16:53.174Z,1013.27
2019-03-18T08:17:53.034Z,1013.31
2019-03-18T08:18:53.072Z,1013.24
2019-03-18T08:19:52.973Z,1013.24
2019-03-18T08:20:52.982Z,1013.26
2019-03-18T08:21:52.914Z,1013.33
2019-03-18T08:22:52.905Z,1013.30
2019-03-18T08:23:52.851Z,1013.29
2019-03-18T08:24:52.911Z,1013.36
2019-03-18T08:25:52.801Z,1013.37
2019-03-18T08:26:52.841Z,1013.42
2019-03-18T08:27:52.733Z,1013.49
2019-03-18T08:28:52.764Z,1013.47
2019-03-18T08:29:52.671Z,1013.53
2019-03-18T08:30:52.664Z,1013.45
2019-03-18T08:31:52.626Z,1013.50
2019-03-18T08:32:52.694Z,1013.48
2019-03-18T08:33:52.554Z,1013.55
2019-03-18T08:34:52.592Z,1013.54
2019-03-18T08:35:52.495Z,1013.56
2019-03-18T08:36:52.463Z,1013.50
2019-03-18T08:37:54.795Z,1013.56
2019-03-18T08:38:52.534Z,1013.62
2019-03-18T08:39:52.374Z,1013.69
2019-03-18T08:40:52.434Z,1013.62
2019-03-18T08:41:52.314Z,1013.66
2019-03-18T08:42:52.343Z,1013.63
2019-03-18T08:43:52.252Z,1013.68
2019-03-18T08:44:52.253Z,1013.68
2019-03-18T08:45:52.195Z,1013.81
2019-03-18T08:46:52.261Z,1013.78
2019-03-18T08:47:52.143Z,1013.77
2019-03-18T08:48:55.927Z,1013.86
2019-03-18T08:49:52.083Z,1013.81
2019-03-18T08:50:52.093Z,1013.83
2019-03-18T08:51:52.033Z,1013.90
2019-03-18T08:52:52.005Z,1013.94
2019-03-18T08:53:51.967Z,1013.83
2019-03-18T08:54:52.022Z,1013.85
2019-03-18T08:55:51.903Z,1013.90
2019-03-18T08:56:51.924Z,1013.97
2019-03-18T08:57:51.844Z,1013.94
2019-03-18T08:58:51.841Z,1013.91
2019-03-18T08:59:51.785Z,1013.92
2019-03-18T09:00:51.868Z,1013.91
2019-03-18T09:01:51.724Z,1013.94
2019-03-18T09:02:51.763Z,1013.95
2019-03-18T09:03:51.771Z,1013.96
2019-03-18T09:04:51.633Z,1013.95
2019-03-18T09:05:51.688Z,1013.91
2019-03-18T09:06:51.583Z,1013.99
2019-03-18T09:07:51.604Z,1013.97
2019-03-18T09:08:51.525Z,1014.06
2019-03-18T09:09:51.504Z,1014.06
2019-03-18T09:10:51.466Z,1014.06
2019-03-18T09:11:51.535Z,1014.10
2019-03-18T09:12:51.401Z,1014.16
2019-03-18T09:13:51.435Z,1014.05
2019-03-18T09:14:51.352Z,1014.08
2019-03-18T09:15:51.343Z,1014.13
2019-03-18T09:16:51.294Z,1014.10
2019-03-18T09:17:51.373Z,1014.09
2019-03-18T09:18:51.233Z,1014.19
2019-03-18T09:19:51.202Z,1014.16
2019-03-18T09:20:51.177Z,1014.15
2019-03-18T09:21:51.183Z,1014.14
2019-03-18T09:22:51.124Z,1014.15
2019-03-18T09:23:51.193Z,1014.19
2019-03-18T09:24:51.053Z,1014.22
2019-03-18T09:25:51.033Z,1014.24
2019-03-18T09:27:01.770Z,1014.30
2019-03-18T09:27:50.974Z,1014.29
2019-03-18T09:28:51.023Z,1014.37
2019-03-18T09:29:50.915Z,1014.73
2019-03-18T09:30:50.895Z,1014.91
2019-03-18T09:31:50.941Z,1014.97
2019-03-18T09:32:50.838Z,1015.05
2019-03-18T09:33:50.874Z,1015.03
2019-03-18T09:34:50.771Z,1015.09
2019-03-18T09:35:50.772Z,1015.16
2019-03-18T09:36:50.712Z,1014.90
2019-03-18T09:37:50.797Z,1014.79
2019-03-18T09:38:50.663Z,1014.68
2019-03-18T09:39:50.703Z,1014.88
2019-03-18T09:40:50.605Z,1014.66
2019-03-18T09:41:50.584Z,1015.00
2019-03-18T09:42:50.614Z,1014.58
2019-03-18T09:43:50.533Z,1014.53
2019-03-18T09:44:50.522Z,1014.66
2019-03-18T09:45:50.482Z,1015.19
2019-03-18T09:46:50.466Z,1015.13
2019-03-18T09:47:50.423Z,1014.66
2019-03-18T09:48:50.453Z,1014.58
2019-03-18T09:49:50.372Z,1014.65
2019-03-18T09:50:50.365Z,1014.95
2019-03-18T09:51:50.322Z,1014.86
2019-03-18T09:52:50.303Z,1014.66
2019-03-18T09:53:50.286Z,1014.60
2019-03-18T09:54:50.392Z,1014.68
2019-03-18T09:55:50.215Z,1014.85
2019-03-18T09:56:50.315Z,1014.73
2019-03-18T09:57:50.166Z,1014.78
2019-03-18T09:58:50.227Z,1014.75
2019-03-18T09:59:50.125Z,1014.79
2019-03-18T10:00:50.123Z,1014.75
2019-03-18T10:01:50.065Z,1014.74
2019-03-18T10:02:50.141Z,1014.70
2019-03-18T10:03:50.016Z,1014.63
2019-03-18T10:04:50.054Z,1014.69
2019-03-18T10:05:49.974Z,1014.68
2019-03-18T10:06:49.969Z,1014.62
2019-03-18T10:07:49.913Z,1014.62
2019-03-18T10:08:49.894Z,1014.63
2019-03-18T10:09:49.880Z,1014.62
2019-03-18T10:10:49.895Z,1014.63
2019-03-18T10:11:49.824Z,1014.71
2019-03-18T10:12:49.809Z,1014.67
2019-03-18T10:13:49.764Z,1014.69
2019-03-18T10:14:49.733Z,1014.76
2019-03-18T10:15:49.733Z,1014.75
2019-03-18T10:16:49.682Z,1014.95
2019-03-18T10:17:49.734Z,1014.78
2019-03-18T10:18:49.624Z,1014.75
2019-03-18T10:19:49.645Z,1014.80
2019-03-18T10:20:49.576Z,1015.58
2019-03-18T10:21:49.661Z,1014.83
2019-03-18T10:22:49.547Z,1014.74
2019-03-18T10:23:49.574Z,1014.72
2019-03-18T10:24:49.485Z,1014.77
2019-03-18T10:25:49.454Z,1014.74
2019-03-18T10:26:49.420Z,1014.74
2019-03-18T10:27:49.504Z,1014.76
2019-03-18T10:28:49.365Z,1014.73
2019-03-18T10:29:49.465Z,1014.82
2019-03-18T10:30:49.314Z,1014.74
2019-03-18T10:31:49.283Z,1014.92
2019-03-18T10:32:49.332Z,1014.91
2019-03-18T10:33:49.232Z,1014.89
2019-03-18T10:34:49.255Z,1014.83
2019-03-18T10:35:49.182Z,1015.00
2019-03-18T10:36:49.154Z,1015.05
2019-03-18T10:37:49.128Z,1015.08
2019-03-18T10:38:49.164Z,1015.01
2019-03-18T10:39:49.072Z,1015.00
2019-03-18T10:40:49.073Z,1015.08
2019-03-18T10:41:49.017Z,1015.10
2019-03-18T10:42:48.994Z,1015.07
2019-03-18T10:43:48.996Z,1015.24
2019-03-18T10:44:48.946Z,1015.14
2019-03-18T10:45:49.013Z,1015.27
2019-03-18T10:46:48.886Z,1015.21
2019-03-18T10:47:48.875Z,1015.13
2019-03-18T10:48:48.835Z,1015.08
2019-03-18T10:49:48.833Z,1015.13
2019-03-18T10:50:48.774Z,1015.13
2019-03-18T10:51:48.845Z,1015.12
2019-03-18T10:52:48.754Z,1015.16
2019-03-18T10:53:48.706Z,1015.28
2019-03-18T10:54:48.721Z,1015.27
2019-03-18T10:55:48.673Z,1015.24
2019-03-18T10:56:48.625Z,1015.56
2019-03-18T10:57:48.684Z,1015.47
2019-03-18T10:58:48.587Z,1015.35
2019-03-18T10:59:48.545Z,1015.38
2019-03-18T11:00:48.610Z,1015.34
2019-03-18T11:01:48.493Z,1015.31
2019-03-18T11:02:48.514Z,1015.33
2019-03-18T11:03:48.434Z,1015.36
2019-03-18T11:04:48.416Z,1015.58
2019-03-18T11:05:48.385Z,1015.49
2019-03-18T11:06:48.449Z,1016.22
2019-03-18T11:07:48.335Z,1015.38
2019-03-18T11:08:48.359Z,1015.33
2019-03-18T11:09:48.282Z,1015.32
2019-03-18T11:10:48.255Z,1015.31
2019-03-18T11:11:48.272Z,1015.29
2019-03-18T11:12:48.213Z,1015.36
2019-03-18T11:13:48.284Z,1015.36
2019-03-18T11:14:48.153Z,1015.42
2019-03-18T11:15:48.122Z,1015.51
2019-03-18T11:16:48.103Z,1015.56
2019-03-18T11:17:48.124Z,1015.52
2019-03-18T11:18:48.053Z,1015.50
2019-03-18T11:19:57.794Z,1015.47
2019-03-18T11:20:48.014Z,1015.48
2019-03-18T11:21:47.990Z,1016.32
2019-03-18T11:22:48.045Z,1016.47
2019-03-18T11:23:47.924Z,1016.26
2019-03-18T11:24:47.964Z,1016.14
2019-03-18T11:25:47.872Z,1016.08
2019-03-18T11:26:47.848Z,1015.71
2019-03-18T11:27:47.860Z,1016.36
2019-03-18T11:28:47.882Z,1016.47
2019-03-18T11:29:47.776Z,1016.08
2019-03-18T11:30:47.791Z,1015.60
2019-03-18T11:31:47.727Z,1015.56
2019-03-18T11:32:47.693Z,1015.76
2019-03-18T11:33:47.663Z,1016.17
2019-03-18T11:34:47.730Z,1016.12
2019-03-18T11:35:47.622Z,1016.19
2019-03-18T11:36:47.644Z,1016.21
2019-03-18T11:37:47.580Z,1016.04
2019-03-18T11:38:47.643Z,1015.84
2019-03-18T11:39:47.536Z,1016.02
2019-03-18T11:40:47.555Z,1015.70
2019-03-18T11:41:47.474Z,1015.48
2019-03-18T11:42:47.463Z,1015.51
2019-03-18T11:43:47.484Z,1015.43
2019-03-18T11:44:47.406Z,1015.43
2019-03-18T11:45:47.493Z,1015.41
2019-03-18T11:46:47.353Z,1015.45
2019-03-18T11:47:47.407Z,1015.44
2019-03-18T11:48:47.302Z,1015.44
2019-03-18T11:49:47.325Z,1015.42
2019-03-18T11:50:47.264Z,1015.44
2019-03-18T11:51:47.324Z,1015.43
2019-03-18T11:52:47.216Z,1015.47
2019-03-18T11:53:47.241Z,1015.42
2019-03-18T11:54:47.242Z,1015.52
2019-03-18T11:55:47.143Z,1015.49
2019-03-18T11:56:47.187Z,1015.52
2019-03-18T11:57:47.095Z,1015.50
2019-03-18T11:58:47.173Z,1015.49
2019-03-18T11:59:47.061Z,1015.49
2019-03-18T12:00:47.082Z,1015.50
2019-03-18T12:01:46.995Z,1015.56
2019-03-18T12:02:46.992Z,1015.54
2019-03-18T12:03:46.943Z,1015.59
2019-03-18T12:04:47.013Z,1015.59
2019-03-18T12:05:46.915Z,1015.62
2019-03-18T12:06:47.001Z,1015.63
2019-03-18T12:07:46.934Z,1015.65
2019-03-18T12:08:47.006Z,1015.65
2019-03-18T12:09:46.844Z,1015.69
2019-03-18T12:10:46.776Z,1015.68
2019-03-18T12:11:46.853Z,1015.63
2019-03-18T12:12:46.723Z,1015.80
2019-03-18T12:13:46.783Z,1015.70
2019-03-18T12:14:46.664Z,1015.72
2019-03-18T12:15:46.685Z,1015.76
2019-03-18T12:16:46.624Z,1015.82
2019-03-18T12:17:46.702Z,1015.92
2019-03-18T12:18:46.563Z,1015.90
2019-03-18T12:19:46.615Z,1015.91
2019-03-18T12:20:46.511Z,1015.88
2019-03-18T12:21:46.491Z,1015.89
2019-03-18T12:22:46.473Z,1015.86
2019-03-18T12:23:46.534Z,1015.83
2019-03-18T12:24:46.414Z,1015.85
2019-03-18T12:25:46.447Z,1015.83
2019-03-18T12:26:49.114Z,1015.82
2019-03-18T12:27:46.332Z,1015.81
2019-03-18T12:28:46.382Z,1015.82
2019-03-18T12:29:46.294Z,1015.79
2019-03-18T12:30:46.273Z,1015.80
2019-03-18T12:31:46.222Z,1015.82
2019-03-18T12:32:46.204Z,1015.80
2019-03-18T12:33:46.171Z,1015.87
2019-03-18T12:34:46.203Z,1015.88
2019-03-18T12:35:46.116Z,1015.88
2019-03-18T12:36:46.113Z,1015.94
2019-03-18T12:37:46.066Z,1016.01
2019-03-18T12:38:46.033Z,1015.86
2019-03-18T12:39:46.031Z,1015.87
2019-03-18T12:40:45.983Z,1015.82
2019-03-18T12:41:46.056Z,1015.84
2019-03-18T12:42:46.014Z,1015.82
2019-03-18T12:43:45.901Z,1015.85
2019-03-18T12:44:46.046Z,1015.82
2019-03-18T12:45:45.859Z,1015.83
2019-03-18T12:46:45.872Z,1015.84
2019-03-18T12:47:45.813Z,1015.81
2019-03-18T12:48:45.795Z,1015.81
2019-03-18T12:49:45.796Z,1015.82
2019-03-18T12:50:55.874Z,1015.79
2019-03-18T12:51:45.692Z,1015.82
2019-03-18T12:52:45.713Z,1015.78
2019-03-18T12:53:45.658Z,1015.83
2019-03-18T12:54:45.600Z,1015.78
2019-03-18T12:55:45.581Z,1015.83
2019-03-18T12:56:45.643Z,1015.91
2019-03-18T12:57:45.532Z,1015.89
2019-03-18T12:58:45.555Z,1015.91
2019-03-18T12:59:45.495Z,1015.99
2019-03-18T13:00:45.454Z,1016.00
2019-03-18T13:01:45.422Z,1015.96
2019-03-18T13:02:45.483Z,1015.99
2019-03-18T13:03:45.383Z,1015.87
2019-03-18T13:04:45.403Z,1015.91
2019-03-18T13:05:45.334Z,1015.92
2019-03-18T13:06:45.400Z,1015.86
2019-03-18T13:07:45.272Z,1015.89
2019-03-18T13:08:45.330Z,1015.87
2019-03-18T13:09:45.223Z,1015.95
2019-03-18T13:10:45.248Z,1015.90
2019-03-18T13:11:45.163Z,1015.85
2019-03-18T13:12:45.253Z,1015.96
2019-03-18T13:13:45.112Z,1015.97
2019-03-18T13:14:45.154Z,1015.94
2019-03-18T13:15:45.063Z,1016.05
2019-03-18T13:16:45.031Z,1015.92
2019-03-18T13:17:45.014Z,1015.96
2019-03-18T13:18:45.094Z,1015.89
2019-03-18T13:19:44.962Z,1015.78